sensor_id;sensor_type;location;lat;lon;timestamp;P1;durP1;ratioP1;P2;durP2;ratioP2
4973;SDS011;2502;51.290;9.642;2022-07-09T00:01:12;8.63;;;2.97;;
4973;SDS011;2502;51.290;9.642;2022-07-09T00:03:38;4.03;;;2.40;;
4973;SDS011;2502;51.290;9.642;2022-07-09T00:06:03;4.40;;;2.40;;
4973;SDS011;2502;51.290;9.642;2022-07-09T00:08:29;4.23;;;2.20;;
4973;SDS011;2502;51.290;9.642;2022-07-09T00:10:55;7.83;;;2.87;;
4973;SDS011;2502;51.290;9.642;2022-07-09T00:13:20;10.73;;;3.03;;
4973;SDS011;2502;51.290;9.642;2022-07-09T00:15:46;4.20;;;2.60;;
4973;SDS011;2502;51.290;9.642;2022-07-09T00:18:11;3.60;;;2.57;;
4973;SDS011;2502;51.290;9.642;2022-07-09T00:20:37;4.83;;;2.40;;
4973;SDS011;2502;51.290;9.642;2022-07-09T00:23:02;6.10;;;2.60;;
4973;SDS011;2502;51.290;9.642;2022-07-09T00:25:28;4.23;;;2.60;;
4973;SDS011;2502;51.290;9.642;2022-07-09T00:27:53;3.80;;;2.53;;
4973;SDS011;2502;51.290;9.642;2022-07-09T00:30:19;3.47;;;2.40;;
4973;SDS011;2502;51.290;9.642;2022-07-09T00:32:44;4.37;;;2.80;;
4973;SDS011;2502;51.290;9.642;2022-07-09T00:35:10;8.90;;;3.00;;
4973;SDS011;2502;51.290;9.642;2022-07-09T00:37:35;4.73;;;2.50;;
4973;SDS011;2502;51.290;9.642;2022-07-09T00:40:01;4.47;;;2.93;;
4973;SDS011;2502;51.290;9.642;2022-07-09T00:42:27;3.87;;;3.13;;
4973;SDS011;2502;51.290;9.642;2022-07-09T00:44:52;5.70;;;2.70;;
4973;SDS011;2502;51.290;9.642;2022-07-09T00:47:18;3.67;;;2.57;;
4973;SDS011;2502;51.290;9.642;2022-07-09T00:49:43;4.67;;;2.80;;
4973;SDS011;2502;51.290;9.642;2022-07-09T00:52:10;3.23;;;2.50;;
4973;SDS011;2502;51.290;9.642;2022-07-09T00:54:38;2.87;;;2.57;;
4973;SDS011;2502;51.290;9.642;2022-07-09T00:57:05;4.83;;;3.37;;
4973;SDS011;2502;51.290;9.642;2022-07-09T00:59:32;5.60;;;2.77;;
4973;SDS011;2502;51.290;9.642;2022-07-09T01:01:59;3.13;;;2.40;;
4973;SDS011;2502;51.290;9.642;2022-07-09T01:04:26;7.50;;;2.63;;
4973;SDS011;2502;51.290;9.642;2022-07-09T01:06:51;4.00;;;2.87;;
4973;SDS011;2502;51.290;9.642;2022-07-09T01:09:17;4.23;;;2.80;;
4973;SDS011;2502;51.290;9.642;2022-07-09T01:11:43;6.07;;;2.83;;
4973;SDS011;2502;51.290;9.642;2022-07-09T01:14:08;3.37;;;2.37;;
4973;SDS011;2502;51.290;9.642;2022-07-09T01:16:35;7.40;;;3.10;;
4973;SDS011;2502;51.290;9.642;2022-07-09T01:19:02;3.00;;;2.60;;
4973;SDS011;2502;51.290;9.642;2022-07-09T01:21:28;5.40;;;2.77;;
4973;SDS011;2502;51.290;9.642;2022-07-09T01:23:53;4.20;;;3.00;;
4973;SDS011;2502;51.290;9.642;2022-07-09T01:26:19;8.17;;;2.87;;
4973;SDS011;2502;51.290;9.642;2022-07-09T01:28:45;3.93;;;2.80;;
4973;SDS011;2502;51.290;9.642;2022-07-09T01:31:12;3.20;;;2.57;;
4973;SDS011;2502;51.290;9.642;2022-07-09T01:33:37;4.07;;;2.73;;
4973;SDS011;2502;51.290;9.642;2022-07-09T01:36:03;3.47;;;2.70;;
4973;SDS011;2502;51.290;9.642;2022-07-09T01:38:29;6.10;;;3.43;;
4973;SDS011;2502;51.290;9.642;2022-07-09T01:40:54;7.67;;;3.17;;
4973;SDS011;2502;51.290;9.642;2022-07-09T01:43:20;8.83;;;3.40;;
4973;SDS011;2502;51.290;9.642;2022-07-09T01:45:46;3.50;;;2.37;;
4973;SDS011;2502;51.290;9.642;2022-07-09T01:48:12;11.67;;;2.70;;
4973;SDS011;2502;51.290;9.642;2022-07-09T01:50:38;7.00;;;3.40;;
4973;SDS011;2502;51.290;9.642;2022-07-09T01:53:04;5.53;;;2.60;;
4973;SDS011;2502;51.290;9.642;2022-07-09T01:55:29;3.17;;;2.87;;
4973;SDS011;2502;51.290;9.642;2022-07-09T01:57:55;7.80;;;3.10;;
4973;SDS011;2502;51.290;9.642;2022-07-09T02:00:21;5.10;;;3.27;;
4973;SDS011;2502;51.290;9.642;2022-07-09T02:02:46;8.60;;;2.83;;
4973;SDS011;2502;51.290;9.642;2022-07-09T02:05:12;6.23;;;2.80;;
4973;SDS011;2502;51.290;9.642;2022-07-09T02:07:38;3.40;;;3.10;;
4973;SDS011;2502;51.290;9.642;2022-07-09T02:10:04;3.60;;;2.77;;
4973;SDS011;2502;51.290;9.642;2022-07-09T02:12:30;5.80;;;3.10;;
4973;SDS011;2502;51.290;9.642;2022-07-09T02:14:56;5.23;;;3.20;;
4973;SDS011;2502;51.290;9.642;2022-07-09T02:17:21;3.10;;;2.60;;
4973;SDS011;2502;51.290;9.642;2022-07-09T02:19:47;4.53;;;3.17;;
4973;SDS011;2502;51.290;9.642;2022-07-09T02:22:12;3.70;;;2.70;;
4973;SDS011;2502;51.290;9.642;2022-07-09T02:24:38;5.50;;;3.40;;
4973;SDS011;2502;51.290;9.642;2022-07-09T02:27:03;3.10;;;2.80;;
4973;SDS011;2502;51.290;9.642;2022-07-09T02:29:29;4.90;;;3.10;;
4973;SDS011;2502;51.290;9.642;2022-07-09T02:31:55;6.27;;;2.97;;
4973;SDS011;2502;51.290;9.642;2022-07-09T02:34:22;9.60;;;2.90;;
4973;SDS011;2502;51.290;9.642;2022-07-09T02:36:48;6.63;;;2.80;;
4973;SDS011;2502;51.290;9.642;2022-07-09T02:39:13;6.33;;;3.20;;
4973;SDS011;2502;51.290;9.642;2022-07-09T02:41:39;5.83;;;3.40;;
4973;SDS011;2502;51.290;9.642;2022-07-09T02:44:04;5.73;;;3.30;;
4973;SDS011;2502;51.290;9.642;2022-07-09T02:46:30;4.10;;;3.10;;
4973;SDS011;2502;51.290;9.642;2022-07-09T02:48:55;7.53;;;2.93;;
4973;SDS011;2502;51.290;9.642;2022-07-09T02:51:21;4.33;;;3.40;;
4973;SDS011;2502;51.290;9.642;2022-07-09T02:53:46;4.70;;;2.90;;
4973;SDS011;2502;51.290;9.642;2022-07-09T02:56:12;4.30;;;2.77;;
4973;SDS011;2502;51.290;9.642;2022-07-09T02:58:37;11.77;;;3.60;;
4973;SDS011;2502;51.290;9.642;2022-07-09T03:01:03;3.77;;;3.03;;
4973;SDS011;2502;51.290;9.642;2022-07-09T03:03:31;6.23;;;3.23;;
4973;SDS011;2502;51.290;9.642;2022-07-09T03:06:00;6.50;;;3.40;;
4973;SDS011;2502;51.290;9.642;2022-07-09T03:08:26;3.63;;;3.10;;
4973;SDS011;2502;51.290;9.642;2022-07-09T03:10:51;5.27;;;3.30;;
4973;SDS011;2502;51.290;9.642;2022-07-09T03:13:17;8.40;;;3.87;;
4973;SDS011;2502;51.290;9.642;2022-07-09T03:15:42;11.60;;;3.57;;
4973;SDS011;2502;51.290;9.642;2022-07-09T03:18:08;7.67;;;3.30;;
4973;SDS011;2502;51.290;9.642;2022-07-09T03:20:36;3.40;;;3.10;;
4973;SDS011;2502;51.290;9.642;2022-07-09T03:23:03;6.00;;;3.30;;
4973;SDS011;2502;51.290;9.642;2022-07-09T03:25:31;3.90;;;3.23;;
4973;SDS011;2502;51.290;9.642;2022-07-09T03:27:57;5.87;;;2.90;;
4973;SDS011;2502;51.290;9.642;2022-07-09T03:30:23;9.50;;;2.90;;
4973;SDS011;2502;51.290;9.642;2022-07-09T03:32:49;7.13;;;3.50;;
4973;SDS011;2502;51.290;9.642;2022-07-09T03:35:15;5.50;;;3.53;;
4973;SDS011;2502;51.290;9.642;2022-07-09T03:37:41;11.43;;;3.40;;
4973;SDS011;2502;51.290;9.642;2022-07-09T03:40:07;18.23;;;5.03;;
4973;SDS011;2502;51.290;9.642;2022-07-09T03:42:33;3.80;;;2.83;;
4973;SDS011;2502;51.290;9.642;2022-07-09T03:44:59;4.07;;;3.67;;
4973;SDS011;2502;51.290;9.642;2022-07-09T03:47:24;3.70;;;2.90;;
4973;SDS011;2502;51.290;9.642;2022-07-09T03:49:50;8.37;;;2.93;;
4973;SDS011;2502;51.290;9.642;2022-07-09T03:52:16;5.83;;;3.60;;
4973;SDS011;2502;51.290;9.642;2022-07-09T03:54:41;5.90;;;3.93;;
4973;SDS011;2502;51.290;9.642;2022-07-09T03:57:07;5.57;;;3.30;;
4973;SDS011;2502;51.290;9.642;2022-07-09T03:59:32;5.10;;;3.27;;
4973;SDS011;2502;51.290;9.642;2022-07-09T04:01:58;4.73;;;3.00;;
4973;SDS011;2502;51.290;9.642;2022-07-09T04:04:23;5.80;;;3.10;;
4973;SDS011;2502;51.290;9.642;2022-07-09T04:06:49;5.43;;;2.90;;
4973;SDS011;2502;51.290;9.642;2022-07-09T04:09:14;5.33;;;4.00;;
4973;SDS011;2502;51.290;9.642;2022-07-09T04:11:40;3.93;;;2.90;;
4973;SDS011;2502;51.290;9.642;2022-07-09T04:14:06;6.40;;;3.33;;
4973;SDS011;2502;51.290;9.642;2022-07-09T04:16:31;4.33;;;3.10;;
4973;SDS011;2502;51.290;9.642;2022-07-09T04:18:57;5.47;;;3.13;;
4973;SDS011;2502;51.290;9.642;2022-07-09T04:21:23;6.40;;;3.20;;
4973;SDS011;2502;51.290;9.642;2022-07-09T04:23:49;3.90;;;3.10;;
4973;SDS011;2502;51.290;9.642;2022-07-09T04:26:15;6.93;;;3.50;;
4973;SDS011;2502;51.290;9.642;2022-07-09T04:28:41;5.63;;;3.70;;
4973;SDS011;2502;51.290;9.642;2022-07-09T04:31:07;6.93;;;3.30;;
4973;SDS011;2502;51.290;9.642;2022-07-09T04:33:33;3.13;;;2.83;;
4973;SDS011;2502;51.290;9.642;2022-07-09T04:35:58;6.63;;;3.90;;
4973;SDS011;2502;51.290;9.642;2022-07-09T04:38:24;4.13;;;3.43;;
4973;SDS011;2502;51.290;9.642;2022-07-09T04:40:50;8.60;;;2.83;;
4973;SDS011;2502;51.290;9.642;2022-07-09T04:43:16;9.80;;;3.33;;
4973;SDS011;2502;51.290;9.642;2022-07-09T04:45:41;5.13;;;3.83;;
4973;SDS011;2502;51.290;9.642;2022-07-09T04:48:07;5.10;;;3.53;;
4973;SDS011;2502;51.290;9.642;2022-07-09T04:50:33;6.60;;;4.23;;
4973;SDS011;2502;51.290;9.642;2022-07-09T04:52:58;7.30;;;4.40;;
4973;SDS011;2502;51.290;9.642;2022-07-09T04:55:24;6.80;;;3.97;;
4973;SDS011;2502;51.290;9.642;2022-07-09T04:57:50;4.77;;;3.40;;
4973;SDS011;2502;51.290;9.642;2022-07-09T05:00:15;6.00;;;3.43;;
4973;SDS011;2502;51.290;9.642;2022-07-09T05:02:42;6.23;;;4.57;;
4973;SDS011;2502;51.290;9.642;2022-07-09T05:05:08;4.30;;;3.70;;
4973;SDS011;2502;51.290;9.642;2022-07-09T05:07:34;9.17;;;3.90;;
4973;SDS011;2502;51.290;9.642;2022-07-09T05:10:01;5.83;;;4.07;;
4973;SDS011;2502;51.290;9.642;2022-07-09T05:12:27;4.37;;;3.93;;
4973;SDS011;2502;51.290;9.642;2022-07-09T05:14:54;10.80;;;4.20;;
4973;SDS011;2502;51.290;9.642;2022-07-09T05:17:20;4.67;;;4.10;;
4973;SDS011;2502;51.290;9.642;2022-07-09T05:19:46;9.10;;;4.17;;
4973;SDS011;2502;51.290;9.642;2022-07-09T05:22:11;4.53;;;3.60;;
4973;SDS011;2502;51.290;9.642;2022-07-09T05:24:37;10.07;;;4.43;;
4973;SDS011;2502;51.290;9.642;2022-07-09T05:27:02;17.40;;;4.00;;
4973;SDS011;2502;51.290;9.642;2022-07-09T05:29:28;6.77;;;4.40;;
4973;SDS011;2502;51.290;9.642;2022-07-09T05:31:54;13.37;;;4.20;;
4973;SDS011;2502;51.290;9.642;2022-07-09T05:34:22;7.70;;;4.77;;
4973;SDS011;2502;51.290;9.642;2022-07-09T05:36:48;6.67;;;4.20;;
4973;SDS011;2502;51.290;9.642;2022-07-09T05:39:14;15.03;;;4.80;;
4973;SDS011;2502;51.290;9.642;2022-07-09T05:41:39;9.20;;;4.90;;
4973;SDS011;2502;51.290;9.642;2022-07-09T05:44:05;8.00;;;4.80;;
4973;SDS011;2502;51.290;9.642;2022-07-09T05:46:30;11.30;;;4.93;;
4973;SDS011;2502;51.290;9.642;2022-07-09T05:48:56;6.43;;;4.73;;
4973;SDS011;2502;51.290;9.642;2022-07-09T05:51:21;4.83;;;4.20;;
4973;SDS011;2502;51.290;9.642;2022-07-09T05:53:47;5.03;;;4.57;;
4973;SDS011;2502;51.290;9.642;2022-07-09T05:56:13;12.23;;;4.77;;
4973;SDS011;2502;51.290;9.642;2022-07-09T05:58:38;15.43;;;5.13;;
4973;SDS011;2502;51.290;9.642;2022-07-09T06:01:04;11.30;;;5.17;;
4973;SDS011;2502;51.290;9.642;2022-07-09T06:03:31;4.70;;;4.30;;
4973;SDS011;2502;51.290;9.642;2022-07-09T06:05:56;10.20;;;5.43;;
4973;SDS011;2502;51.290;9.642;2022-07-09T06:08:22;15.70;;;5.20;;
4973;SDS011;2502;51.290;9.642;2022-07-09T06:10:49;8.80;;;4.60;;
4973;SDS011;2502;51.290;9.642;2022-07-09T06:13:15;8.53;;;4.83;;
4973;SDS011;2502;51.290;9.642;2022-07-09T06:15:40;10.50;;;5.70;;
4973;SDS011;2502;51.290;9.642;2022-07-09T06:18:06;10.60;;;4.40;;
4973;SDS011;2502;51.290;9.642;2022-07-09T06:20:32;7.70;;;4.60;;
4973;SDS011;2502;51.290;9.642;2022-07-09T06:22:57;7.33;;;4.87;;
4973;SDS011;2502;51.290;9.642;2022-07-09T06:25:23;5.63;;;4.53;;
4973;SDS011;2502;51.290;9.642;2022-07-09T06:27:48;7.93;;;5.10;;
4973;SDS011;2502;51.290;9.642;2022-07-09T06:30:14;7.53;;;4.80;;
4973;SDS011;2502;51.290;9.642;2022-07-09T06:32:39;6.77;;;3.70;;
4973;SDS011;2502;51.290;9.642;2022-07-09T06:35:05;10.43;;;5.47;;
4973;SDS011;2502;51.290;9.642;2022-07-09T06:37:31;6.60;;;4.40;;
4973;SDS011;2502;51.290;9.642;2022-07-09T06:39:57;6.93;;;4.07;;
4973;SDS011;2502;51.290;9.642;2022-07-09T06:42:24;7.73;;;4.03;;
4973;SDS011;2502;51.290;9.642;2022-07-09T06:44:50;7.63;;;4.27;;
4973;SDS011;2502;51.290;9.642;2022-07-09T06:47:15;7.10;;;3.77;;
4973;SDS011;2502;51.290;9.642;2022-07-09T06:49:41;5.93;;;4.00;;
4973;SDS011;2502;51.290;9.642;2022-07-09T06:52:07;6.23;;;4.40;;
4973;SDS011;2502;51.290;9.642;2022-07-09T06:54:33;6.97;;;4.40;;
4973;SDS011;2502;51.290;9.642;2022-07-09T06:57:00;6.50;;;4.50;;
4973;SDS011;2502;51.290;9.642;2022-07-09T06:59:26;5.87;;;4.10;;
4973;SDS011;2502;51.290;9.642;2022-07-09T07:01:51;6.37;;;4.37;;
4973;SDS011;2502;51.290;9.642;2022-07-09T07:04:17;5.70;;;4.07;;
4973;SDS011;2502;51.290;9.642;2022-07-09T07:06:45;7.10;;;4.10;;
4973;SDS011;2502;51.290;9.642;2022-07-09T07:09:13;6.83;;;4.20;;
4973;SDS011;2502;51.290;9.642;2022-07-09T07:11:46;10.70;;;4.40;;
4973;SDS011;2502;51.290;9.642;2022-07-09T07:14:15;10.53;;;4.93;;
4973;SDS011;2502;51.290;9.642;2022-07-09T07:16:41;44.27;;;4.83;;
4973;SDS011;2502;51.290;9.642;2022-07-09T07:19:08;13.53;;;4.93;;
4973;SDS011;2502;51.290;9.642;2022-07-09T07:21:34;7.73;;;4.17;;
4973;SDS011;2502;51.290;9.642;2022-07-09T07:23:59;4.20;;;3.67;;
4973;SDS011;2502;51.290;9.642;2022-07-09T07:26:25;4.27;;;3.87;;
4973;SDS011;2502;51.290;9.642;2022-07-09T07:28:50;8.23;;;3.80;;
4973;SDS011;2502;51.290;9.642;2022-07-09T07:31:16;5.87;;;4.00;;
4973;SDS011;2502;51.290;9.642;2022-07-09T07:33:42;5.67;;;3.37;;
4973;SDS011;2502;51.290;9.642;2022-07-09T07:36:08;8.93;;;3.30;;
4973;SDS011;2502;51.290;9.642;2022-07-09T07:38:34;11.87;;;3.77;;
4973;SDS011;2502;51.290;9.642;2022-07-09T07:40:59;10.33;;;3.53;;
4973;SDS011;2502;51.290;9.642;2022-07-09T07:43:25;11.80;;;4.13;;
4973;SDS011;2502;51.290;9.642;2022-07-09T07:45:50;5.97;;;3.80;;
4973;SDS011;2502;51.290;9.642;2022-07-09T07:48:16;8.23;;;3.57;;
4973;SDS011;2502;51.290;9.642;2022-07-09T07:50:41;7.90;;;3.40;;
4973;SDS011;2502;51.290;9.642;2022-07-09T07:53:07;5.17;;;3.73;;
4973;SDS011;2502;51.290;9.642;2022-07-09T07:55:33;13.10;;;4.40;;
4973;SDS011;2502;51.290;9.642;2022-07-09T07:57:59;6.10;;;3.33;;
4973;SDS011;2502;51.290;9.642;2022-07-09T08:00:24;4.50;;;3.20;;
4973;SDS011;2502;51.290;9.642;2022-07-09T08:02:50;4.93;;;3.13;;
4973;SDS011;2502;51.290;9.642;2022-07-09T08:05:15;9.43;;;3.70;;
4973;SDS011;2502;51.290;9.642;2022-07-09T08:07:41;5.67;;;3.60;;
4973;SDS011;2502;51.290;9.642;2022-07-09T08:10:07;5.63;;;3.10;;
4973;SDS011;2502;51.290;9.642;2022-07-09T08:12:33;5.20;;;3.37;;
4973;SDS011;2502;51.290;9.642;2022-07-09T08:14:59;10.83;;;4.50;;
4973;SDS011;2502;51.290;9.642;2022-07-09T08:17:25;7.67;;;3.90;;
4973;SDS011;2502;51.290;9.642;2022-07-09T08:19:50;5.00;;;3.00;;
4973;SDS011;2502;51.290;9.642;2022-07-09T08:22:16;3.33;;;2.50;;
4973;SDS011;2502;51.290;9.642;2022-07-09T08:24:42;3.57;;;2.13;;
4973;SDS011;2502;51.290;9.642;2022-07-09T08:27:08;2.83;;;1.83;;
4973;SDS011;2502;51.290;9.642;2022-07-09T08:29:33;2.53;;;1.80;;
4973;SDS011;2502;51.290;9.642;2022-07-09T08:31:59;2.13;;;1.70;;
4973;SDS011;2502;51.290;9.642;2022-07-09T08:34:25;3.23;;;1.80;;
4973;SDS011;2502;51.290;9.642;2022-07-09T08:36:51;5.27;;;1.70;;
4973;SDS011;2502;51.290;9.642;2022-07-09T08:39:16;2.87;;;1.57;;
4973;SDS011;2502;51.290;9.642;2022-07-09T08:41:42;2.03;;;1.83;;
4973;SDS011;2502;51.290;9.642;2022-07-09T08:44:11;1.93;;;1.70;;
4973;SDS011;2502;51.290;9.642;2022-07-09T08:46:38;1.70;;;1.60;;
4973;SDS011;2502;51.290;9.642;2022-07-09T08:49:05;4.77;;;1.67;;
4973;SDS011;2502;51.290;9.642;2022-07-09T08:51:32;2.07;;;1.87;;
4973;SDS011;2502;51.290;9.642;2022-07-09T08:53:58;1.50;;;1.40;;
4973;SDS011;2502;51.290;9.642;2022-07-09T08:56:25;4.73;;;1.70;;
4973;SDS011;2502;51.290;9.642;2022-07-09T08:58:51;1.70;;;1.50;;
4973;SDS011;2502;51.290;9.642;2022-07-09T09:01:16;2.70;;;1.70;;
4973;SDS011;2502;51.290;9.642;2022-07-09T09:03:45;1.30;;;1.20;;
4973;SDS011;2502;51.290;9.642;2022-07-09T09:06:11;2.27;;;1.40;;
4973;SDS011;2502;51.290;9.642;2022-07-09T09:08:40;3.33;;;1.40;;
4973;SDS011;2502;51.290;9.642;2022-07-09T09:11:08;1.73;;;1.33;;
4973;SDS011;2502;51.290;9.642;2022-07-09T09:13:44;1.53;;;1.30;;
4973;SDS011;2502;51.290;9.642;2022-07-09T09:16:11;1.20;;;1.10;;
4973;SDS011;2502;51.290;9.642;2022-07-09T09:18:41;3.57;;;1.30;;
4973;SDS011;2502;51.290;9.642;2022-07-09T09:21:12;1.63;;;1.43;;
4973;SDS011;2502;51.290;9.642;2022-07-09T09:23:39;2.60;;;1.30;;
4973;SDS011;2502;51.290;9.642;2022-07-09T09:26:11;1.83;;;1.30;;
4973;SDS011;2502;51.290;9.642;2022-07-09T09:28:45;2.00;;;1.10;;
4973;SDS011;2502;51.290;9.642;2022-07-09T09:31:26;1.83;;;1.33;;
4973;SDS011;2502;51.290;9.642;2022-07-09T09:33:57;4.93;;;1.60;;
4973;SDS011;2502;51.290;9.642;2022-07-09T09:36:44;2.73;;;1.27;;
4973;SDS011;2502;51.290;9.642;2022-07-09T09:39:11;1.83;;;1.47;;
4973;SDS011;2502;51.290;9.642;2022-07-09T09:44:13;1.47;;;1.37;;
4973;SDS011;2502;51.290;9.642;2022-07-09T09:46:48;2.70;;;1.20;;
4973;SDS011;2502;51.290;9.642;2022-07-09T09:49:14;5.40;;;1.33;;
4973;SDS011;2502;51.290;9.642;2022-07-09T09:51:51;3.77;;;1.50;;
4973;SDS011;2502;51.290;9.642;2022-07-09T09:54:31;1.33;;;1.23;;
4973;SDS011;2502;51.290;9.642;2022-07-09T09:56:58;1.40;;;1.30;;
4973;SDS011;2502;51.290;9.642;2022-07-09T09:59:24;1.30;;;1.20;;
4973;SDS011;2502;51.290;9.642;2022-07-09T10:01:50;6.20;;;1.60;;
4973;SDS011;2502;51.290;9.642;2022-07-09T10:04:16;2.30;;;1.80;;
4973;SDS011;2502;51.290;9.642;2022-07-09T10:06:43;1.57;;;1.40;;
4973;SDS011;2502;51.290;9.642;2022-07-09T10:09:11;1.40;;;1.30;;
4973;SDS011;2502;51.290;9.642;2022-07-09T10:11:38;2.03;;;1.40;;
4973;SDS011;2502;51.290;9.642;2022-07-09T10:14:04;1.47;;;1.37;;
4973;SDS011;2502;51.290;9.642;2022-07-09T10:16:36;1.73;;;1.63;;
4973;SDS011;2502;51.290;9.642;2022-07-09T10:19:03;3.13;;;1.60;;
4973;SDS011;2502;51.290;9.642;2022-07-09T10:21:33;1.90;;;1.33;;
4973;SDS011;2502;51.290;9.642;2022-07-09T10:24:01;2.30;;;1.30;;
4973;SDS011;2502;51.290;9.642;2022-07-09T10:26:43;2.40;;;1.87;;
4973;SDS011;2502;51.290;9.642;2022-07-09T10:29:25;3.60;;;1.60;;
4973;SDS011;2502;51.290;9.642;2022-07-09T10:31:52;2.13;;;1.60;;
4973;SDS011;2502;51.290;9.642;2022-07-09T10:37:04;3.47;;;1.80;;
4973;SDS011;2502;51.290;9.642;2022-07-09T10:39:31;1.37;;;1.27;;
4973;SDS011;2502;51.290;9.642;2022-07-09T10:44:34;1.87;;;1.60;;
4973;SDS011;2502;51.290;9.642;2022-07-09T10:47:01;3.97;;;1.77;;
4973;SDS011;2502;51.290;9.642;2022-07-09T10:49:27;1.77;;;1.67;;
4973;SDS011;2502;51.290;9.642;2022-07-09T10:51:56;2.00;;;1.80;;
4973;SDS011;2502;51.290;9.642;2022-07-09T10:54:23;3.30;;;2.10;;
4973;SDS011;2502;51.290;9.642;2022-07-09T10:56:49;3.13;;;1.97;;
4973;SDS011;2502;51.290;9.642;2022-07-09T10:59:18;8.57;;;2.00;;
4973;SDS011;2502;51.290;9.642;2022-07-09T11:01:44;3.03;;;2.10;;
4973;SDS011;2502;51.290;9.642;2022-07-09T11:04:10;5.37;;;1.83;;
4973;SDS011;2502;51.290;9.642;2022-07-09T11:06:48;4.00;;;1.83;;
4973;SDS011;2502;51.290;9.642;2022-07-09T11:09:13;4.87;;;1.90;;
4973;SDS011;2502;51.290;9.642;2022-07-09T11:11:43;2.33;;;2.10;;
4973;SDS011;2502;51.290;9.642;2022-07-09T11:14:09;2.13;;;1.93;;
4973;SDS011;2502;51.290;9.642;2022-07-09T11:16:36;2.20;;;2.00;;
4973;SDS011;2502;51.290;9.642;2022-07-09T11:19:14;1.63;;;1.53;;
4973;SDS011;2502;51.290;9.642;2022-07-09T11:21:41;2.70;;;1.87;;
4973;SDS011;2502;51.290;9.642;2022-07-09T11:24:16;2.13;;;1.93;;
4973;SDS011;2502;51.290;9.642;2022-07-09T11:26:49;2.97;;;2.00;;
4973;SDS011;2502;51.290;9.642;2022-07-09T11:29:18;7.03;;;1.90;;
4973;SDS011;2502;51.290;9.642;2022-07-09T11:31:47;5.80;;;2.43;;
4973;SDS011;2502;51.290;9.642;2022-07-09T11:34:17;5.20;;;2.10;;
4973;SDS011;2502;51.290;9.642;2022-07-09T11:36:47;3.70;;;1.80;;
4973;SDS011;2502;51.290;9.642;2022-07-09T11:39:32;3.33;;;1.87;;
4973;SDS011;2502;51.290;9.642;2022-07-09T11:42:01;2.87;;;1.63;;
4973;SDS011;2502;51.290;9.642;2022-07-09T11:44:32;3.37;;;1.60;;
4973;SDS011;2502;51.290;9.642;2022-07-09T11:49:38;1.53;;;1.43;;
4973;SDS011;2502;51.290;9.642;2022-07-09T11:52:21;3.60;;;1.70;;
4973;SDS011;2502;51.290;9.642;2022-07-09T11:57:50;3.93;;;1.47;;
4973;SDS011;2502;51.290;9.642;2022-07-09T12:00:24;1.63;;;1.23;;
4973;SDS011;2502;51.290;9.642;2022-07-09T12:02:52;5.43;;;1.47;;
4973;SDS011;2502;51.290;9.642;2022-07-09T12:05:25;1.50;;;1.40;;
4973;SDS011;2502;51.290;9.642;2022-07-09T12:08:02;1.90;;;1.80;;
4973;SDS011;2502;51.290;9.642;2022-07-09T12:10:31;1.60;;;1.50;;
4973;SDS011;2502;51.290;9.642;2022-07-09T12:12:57;3.83;;;1.70;;
4973;SDS011;2502;51.290;9.642;2022-07-09T12:15:24;2.27;;;1.53;;
4973;SDS011;2502;51.290;9.642;2022-07-09T12:17:50;3.50;;;1.20;;
4973;SDS011;2502;51.290;9.642;2022-07-09T12:20:21;1.50;;;1.40;;
4973;SDS011;2502;51.290;9.642;2022-07-09T12:22:47;2.03;;;1.60;;
4973;SDS011;2502;51.290;9.642;2022-07-09T12:25:13;1.53;;;1.43;;
4973;SDS011;2502;51.290;9.642;2022-07-09T12:27:39;2.40;;;1.37;;
4973;SDS011;2502;51.290;9.642;2022-07-09T12:30:04;2.60;;;1.40;;
4973;SDS011;2502;51.290;9.642;2022-07-09T12:32:30;2.77;;;1.20;;
4973;SDS011;2502;51.290;9.642;2022-07-09T12:34:56;13.40;;;1.70;;
4973;SDS011;2502;51.290;9.642;2022-07-09T12:37:21;2.70;;;1.57;;
4973;SDS011;2502;51.290;9.642;2022-07-09T12:39:47;1.47;;;1.30;;
4973;SDS011;2502;51.290;9.642;2022-07-09T12:42:14;2.10;;;1.30;;
4973;SDS011;2502;51.290;9.642;2022-07-09T12:44:40;2.03;;;1.40;;
4973;SDS011;2502;51.290;9.642;2022-07-09T12:47:05;3.80;;;1.20;;
4973;SDS011;2502;51.290;9.642;2022-07-09T12:49:31;2.53;;;1.40;;
4973;SDS011;2502;51.290;9.642;2022-07-09T12:51:56;3.00;;;1.47;;
4973;SDS011;2502;51.290;9.642;2022-07-09T12:54:22;1.40;;;1.30;;
4973;SDS011;2502;51.290;9.642;2022-07-09T12:56:48;2.03;;;1.33;;
4973;SDS011;2502;51.290;9.642;2022-07-09T12:59:15;1.73;;;1.63;;
4973;SDS011;2502;51.290;9.642;2022-07-09T13:01:42;1.53;;;1.27;;
4973;SDS011;2502;51.290;9.642;2022-07-09T13:04:08;7.07;;;1.60;;
4973;SDS011;2502;51.290;9.642;2022-07-09T13:06:33;2.90;;;1.50;;
4973;SDS011;2502;51.290;9.642;2022-07-09T13:08:59;14.20;;;2.40;;
4973;SDS011;2502;51.290;9.642;2022-07-09T13:11:35;24.30;;;4.27;;
4973;SDS011;2502;51.290;9.642;2022-07-09T13:14:01;11.63;;;3.10;;
4973;SDS011;2502;51.290;9.642;2022-07-09T13:16:27;6.70;;;2.50;;
4973;SDS011;2502;51.290;9.642;2022-07-09T13:18:53;5.20;;;2.80;;
4973;SDS011;2502;51.290;9.642;2022-07-09T13:21:19;7.07;;;2.60;;
4973;SDS011;2502;51.290;9.642;2022-07-09T13:23:45;4.93;;;2.80;;
4973;SDS011;2502;51.290;9.642;2022-07-09T13:26:12;2.53;;;2.30;;
4973;SDS011;2502;51.290;9.642;2022-07-09T13:28:38;5.60;;;3.43;;
4973;SDS011;2502;51.290;9.642;2022-07-09T13:31:04;3.20;;;2.33;;
4973;SDS011;2502;51.290;9.642;2022-07-09T13:33:31;3.73;;;2.90;;
4973;SDS011;2502;51.290;9.642;2022-07-09T13:35:57;3.47;;;2.67;;
4973;SDS011;2502;51.290;9.642;2022-07-09T13:38:23;2.60;;;2.40;;
4973;SDS011;2502;51.290;9.642;2022-07-09T13:40:49;3.60;;;3.30;;
4973;SDS011;2502;51.290;9.642;2022-07-09T13:43:14;7.83;;;2.90;;
4973;SDS011;2502;51.290;9.642;2022-07-09T13:45:40;2.67;;;2.40;;
4973;SDS011;2502;51.290;9.642;2022-07-09T13:48:06;2.20;;;2.10;;
4973;SDS011;2502;51.290;9.642;2022-07-09T13:50:31;2.33;;;2.00;;
4973;SDS011;2502;51.290;9.642;2022-07-09T13:52:57;2.27;;;2.00;;
4973;SDS011;2502;51.290;9.642;2022-07-09T13:55:22;3.50;;;2.40;;
4973;SDS011;2502;51.290;9.642;2022-07-09T13:57:48;5.10;;;2.20;;
4973;SDS011;2502;51.290;9.642;2022-07-09T14:00:14;2.50;;;2.07;;
4973;SDS011;2502;51.290;9.642;2022-07-09T14:02:39;3.10;;;2.63;;
4973;SDS011;2502;51.290;9.642;2022-07-09T14:05:05;3.90;;;2.37;;
4973;SDS011;2502;51.290;9.642;2022-07-09T14:07:31;2.50;;;2.27;;
4973;SDS011;2502;51.290;9.642;2022-07-09T14:09:57;2.80;;;2.30;;
4973;SDS011;2502;51.290;9.642;2022-07-09T14:12:22;4.37;;;2.73;;
4973;SDS011;2502;51.290;9.642;2022-07-09T14:14:49;3.70;;;2.10;;
4973;SDS011;2502;51.290;9.642;2022-07-09T14:17:15;7.80;;;2.70;;
4973;SDS011;2502;51.290;9.642;2022-07-09T14:19:41;2.50;;;2.07;;
4973;SDS011;2502;51.290;9.642;2022-07-09T14:22:07;3.40;;;2.20;;
4973;SDS011;2502;51.290;9.642;2022-07-09T14:24:32;2.47;;;2.20;;
4973;SDS011;2502;51.290;9.642;2022-07-09T14:26:58;3.30;;;2.33;;
4973;SDS011;2502;51.290;9.642;2022-07-09T14:29:24;5.23;;;2.53;;
4973;SDS011;2502;51.290;9.642;2022-07-09T14:31:50;3.00;;;2.30;;
4973;SDS011;2502;51.290;9.642;2022-07-09T14:34:16;2.90;;;2.20;;
4973;SDS011;2502;51.290;9.642;2022-07-09T14:36:41;2.20;;;1.90;;
4973;SDS011;2502;51.290;9.642;2022-07-09T14:39:07;4.60;;;1.63;;
4973;SDS011;2502;51.290;9.642;2022-07-09T14:41:32;2.23;;;2.00;;
4973;SDS011;2502;51.290;9.642;2022-07-09T14:43:59;5.30;;;2.20;;
4973;SDS011;2502;51.290;9.642;2022-07-09T14:46:24;3.90;;;2.30;;
4973;SDS011;2502;51.290;9.642;2022-07-09T14:48:50;2.00;;;1.73;;
4973;SDS011;2502;51.290;9.642;2022-07-09T14:51:16;1.70;;;1.60;;
4973;SDS011;2502;51.290;9.642;2022-07-09T14:53:41;2.77;;;1.80;;
4973;SDS011;2502;51.290;9.642;2022-07-09T14:56:07;3.10;;;1.93;;
4973;SDS011;2502;51.290;9.642;2022-07-09T14:58:32;2.67;;;1.90;;
4973;SDS011;2502;51.290;9.642;2022-07-09T15:00:58;2.63;;;1.40;;
4973;SDS011;2502;51.290;9.642;2022-07-09T15:03:23;2.17;;;1.97;;
4973;SDS011;2502;51.290;9.642;2022-07-09T15:05:49;1.73;;;1.63;;
4973;SDS011;2502;51.290;9.642;2022-07-09T15:08:15;3.43;;;1.87;;
4973;SDS011;2502;51.290;9.642;2022-07-09T15:10:41;2.00;;;1.80;;
4973;SDS011;2502;51.290;9.642;2022-07-09T15:13:06;3.63;;;1.70;;
4973;SDS011;2502;51.290;9.642;2022-07-09T15:15:33;2.03;;;1.67;;
4973;SDS011;2502;51.290;9.642;2022-07-09T15:18:02;3.10;;;2.00;;
4973;SDS011;2502;51.290;9.642;2022-07-09T15:20:28;6.60;;;2.00;;
4973;SDS011;2502;51.290;9.642;2022-07-09T15:22:54;3.90;;;2.00;;
4973;SDS011;2502;51.290;9.642;2022-07-09T15:25:20;2.50;;;1.90;;